createdAt,value
2018-02-06T00:01:57.714Z,12.77
2018-02-06T00:04:25.375Z,12.87
2018-02-06T00:06:52.927Z,12.60
2018-02-06T00:09:20.495Z,14.00
2018-02-06T00:11:52.075Z,14.50
2018-02-06T00:14:21.079Z,13.70
2018-02-06T00:16:49.235Z,12.90
2018-02-06T00:19:16.986Z,12.47
2018-02-06T00:21:45.294Z,15.03
2018-02-06T00:24:13.640Z,13.93
2018-02-06T00:26:42.911Z,13.43
2018-02-06T00:29:10.511Z,13.30
2018-02-06T00:31:38.463Z,12.40
2018-02-06T00:34:06.043Z,13.10
2018-02-06T00:36:35.370Z,13.40
2018-02-06T00:39:03.831Z,13.40
2018-02-06T00:41:32.359Z,13.20
2018-02-06T00:44:00.671Z,13.90
2018-02-06T00:46:28.631Z,13.93
2018-02-06T00:48:56.192Z,13.37
2018-02-06T00:51:24.157Z,13.20
2018-02-06T00:53:52.745Z,14.80
2018-02-06T00:56:22.248Z,13.00
2018-02-06T00:58:50.699Z,13.20
2018-02-06T01:01:18.298Z,12.93
2018-02-06T01:03:45.859Z,13.17
2018-02-06T01:06:14.254Z,15.27
2018-02-06T01:08:42.710Z,12.07
2018-02-06T01:11:10.699Z,14.50
2018-02-06T01:13:38.246Z,13.90
2018-02-06T01:16:06.363Z,13.17
2018-02-06T01:18:34.679Z,13.43
2018-02-06T01:21:03.014Z,13.37
2018-02-06T01:23:30.640Z,13.90
2018-02-06T01:25:58.207Z,12.70
2018-02-06T01:28:28.005Z,13.73
2018-02-06T01:30:56.954Z,13.63
2018-02-06T01:33:24.554Z,14.03
2018-02-06T01:35:52.123Z,13.20
2018-02-06T01:38:20.140Z,14.70
2018-02-06T01:40:48.697Z,13.47
2018-02-06T01:43:18.905Z,13.43
2018-02-06T01:45:46.538Z,14.80
2018-02-06T01:48:14.847Z,14.00
2018-02-06T01:50:42.390Z,14.00
2018-02-06T01:53:10.762Z,14.37
2018-02-06T01:55:38.704Z,13.47
2018-02-06T01:58:06.673Z,13.97
2018-02-06T02:00:36.785Z,14.17
2018-02-06T02:03:05.923Z,15.60
2018-02-06T02:05:33.484Z,13.73
2018-02-06T02:08:01.823Z,15.10
2018-02-06T02:10:30.069Z,15.07
2018-02-06T02:12:57.728Z,15.00
2018-02-06T02:15:29.679Z,13.43
2018-02-06T02:17:57.257Z,14.53
2018-02-06T02:20:25.573Z,13.77
2018-02-06T02:22:53.560Z,13.60
2018-02-06T02:25:22.044Z,14.70
2018-02-06T02:27:52.039Z,14.23
2018-02-06T02:30:20.079Z,13.77
2018-02-06T02:32:49.054Z,13.80
2018-02-06T02:35:16.673Z,14.30
2018-02-06T02:37:45.007Z,14.30
2018-02-06T02:40:13.327Z,13.37
2018-02-06T04:39:01.577Z,14.37
2018-02-06T04:41:29.892Z,14.50
2018-02-06T04:43:57.729Z,16.13
2018-02-06T04:46:25.978Z,15.53
2018-02-06T04:48:53.853Z,15.87
2018-02-06T04:51:21.460Z,14.93
2018-02-06T04:53:49.071Z,16.33
2018-02-06T04:56:17.394Z,16.83
2018-02-06T04:58:44.936Z,16.00
2018-02-06T05:01:12.943Z,18.00
2018-02-06T05:03:41.922Z,16.57
2018-02-06T05:06:15.236Z,16.27
2018-02-06T05:08:43.278Z,17.40
2018-02-06T05:11:13.201Z,16.83
2018-02-06T05:13:42.006Z,16.67
2018-02-06T05:16:10.156Z,15.67
2018-02-06T05:18:38.832Z,16.40
2018-02-06T05:21:06.500Z,16.97
2018-02-06T05:23:34.846Z,16.20
2018-02-06T05:26:03.329Z,15.50
2018-02-06T05:28:32.370Z,16.03
2018-02-06T05:31:00.671Z,16.27
2018-02-06T05:33:28.214Z,16.83
2018-02-06T05:35:55.786Z,15.80
2018-02-06T05:38:27.396Z,16.63
2018-02-06T05:40:56.426Z,16.63
2018-02-06T05:43:24.959Z,16.30
2018-02-06T05:45:53.071Z,16.60
2018-02-06T05:48:21.755Z,17.37
2018-02-06T05:50:50.573Z,16.40
2018-02-06T05:53:21.670Z,17.50
2018-02-06T05:55:49.244Z,15.00
2018-02-06T05:58:17.607Z,17.47
2018-02-06T06:00:47.143Z,15.40
2018-02-06T06:03:14.927Z,17.10
2018-02-06T06:05:42.526Z,15.90
2018-02-06T06:08:10.846Z,17.07
2018-02-06T06:10:38.425Z,18.00
2018-02-06T06:13:06.368Z,17.57
2018-02-06T06:15:35.047Z,15.13
2018-02-06T06:18:06.627Z,16.37
2018-02-06T06:20:37.030Z,15.93
2018-02-06T06:23:08.202Z,15.40
2018-02-06T06:25:37.382Z,16.50
2018-02-06T06:28:05.163Z,17.10
2018-02-06T06:30:33.112Z,16.80
2018-02-06T06:33:01.078Z,18.20
2018-02-06T06:35:29.356Z,15.93
2018-02-06T06:37:57.570Z,17.13
2018-02-06T06:40:29.823Z,17.60
2018-02-06T06:43:06.977Z,16.93
2018-02-06T06:45:35.554Z,18.77
2018-02-06T06:48:06.219Z,17.00
2018-02-06T06:50:34.601Z,18.80
2018-02-06T06:53:02.703Z,18.90
2018-02-06T06:55:30.668Z,17.87
2018-02-06T06:58:04.571Z,18.00
2018-02-06T07:00:33.374Z,17.40
2018-02-06T07:03:02.240Z,17.93
2018-02-06T07:05:33.649Z,16.70
2018-02-06T07:08:02.077Z,17.67
2018-02-06T07:10:30.394Z,15.73
2018-02-06T07:12:58.387Z,17.70
2018-02-06T07:18:06.103Z,17.20
2018-02-06T07:20:33.646Z,17.77
2018-02-06T07:23:02.306Z,17.20
2018-02-06T07:25:32.322Z,17.10
2018-02-06T07:28:00.371Z,18.00
2018-02-06T07:30:48.256Z,16.63
2018-02-06T07:33:16.608Z,22.13
2018-02-06T07:35:44.551Z,19.60
2018-02-06T07:38:12.890Z,19.27
2018-02-06T07:40:41.203Z,21.63
2018-02-06T07:43:09.553Z,20.17
2018-02-06T07:45:37.864Z,18.30
2018-02-06T07:48:06.262Z,18.73
2018-02-06T07:50:34.581Z,20.17
2018-02-06T07:53:02.923Z,20.20
2018-02-06T07:55:31.236Z,19.57
2018-02-06T07:57:58.838Z,18.80
2018-02-06T08:00:26.790Z,18.10
2018-02-06T08:02:56.638Z,18.20
2018-02-06T08:05:24.679Z,18.57
2018-02-06T08:07:52.651Z,18.53
2018-02-06T08:10:22.414Z,18.43
2018-02-06T08:12:50.038Z,18.93
2018-02-06T08:15:18.716Z,17.57
2018-02-06T08:17:46.683Z,19.07
2018-02-06T08:20:15.070Z,19.10
2018-02-06T08:22:45.459Z,18.70
2018-02-06T08:25:13.407Z,17.90
2018-02-06T08:27:41.338Z,20.00
2018-02-06T08:30:09.662Z,18.80
2018-02-06T08:32:37.219Z,18.73
2018-02-06T08:35:15.381Z,19.07
2018-02-06T08:37:44.874Z,20.00
2018-02-06T08:40:13.220Z,19.30
2018-02-06T08:42:41.974Z,20.37
2018-02-06T08:45:13.358Z,20.47
2018-02-06T08:47:43.580Z,20.00
2018-02-06T08:50:15.979Z,20.40
2018-02-06T08:52:51.315Z,20.53
2018-02-06T08:55:20.443Z,20.43
2018-02-06T08:57:48.387Z,20.50
2018-02-06T09:00:24.928Z,19.17
2018-02-06T09:03:06.539Z,21.33
2018-02-06T09:05:34.523Z,19.80
2018-02-06T09:08:02.862Z,21.00
2018-02-06T09:10:32.550Z,20.13
2018-02-06T09:13:00.955Z,19.53
2018-02-06T09:15:42.596Z,20.37
2018-02-06T09:18:10.138Z,20.33
2018-02-06T09:23:50.911Z,21.77
2018-02-06T09:26:19.330Z,22.00
2018-02-06T09:28:46.895Z,23.57
2018-02-06T09:31:16.741Z,20.40
2018-02-06T09:34:01.068Z,20.77
2018-02-06T09:36:29.444Z,23.23
2018-02-06T09:39:22.204Z,20.03
2018-02-06T09:41:51.152Z,21.53
2018-02-06T09:44:18.706Z,22.30
2018-02-06T09:46:46.654Z,21.30
2018-02-06T09:49:19.458Z,22.77
2018-02-06T09:51:50.831Z,20.17
2018-02-06T09:54:18.783Z,23.17
2018-02-06T09:56:47.114Z,20.77
2018-02-06T09:59:22.251Z,22.60
2018-02-06T10:02:04.428Z,21.23
2018-02-06T10:04:33.043Z,22.67
2018-02-06T10:07:13.975Z,23.40
2018-02-06T10:09:42.453Z,21.97
2018-02-06T10:12:23.387Z,21.20
2018-02-06T10:14:51.976Z,21.47
2018-02-06T10:17:19.538Z,22.90
2018-02-06T10:19:49.930Z,20.97
2018-02-06T10:22:34.591Z,22.00
2018-02-06T10:25:02.851Z,21.33
2018-02-06T10:27:50.907Z,24.40
2018-02-06T10:30:18.866Z,23.17
2018-02-06T10:32:46.408Z,24.93
2018-02-06T10:35:17.077Z,22.73
2018-02-06T10:37:47.200Z,22.10
2018-02-06T10:43:18.865Z,22.83
2018-02-06T10:45:59.192Z,23.40
2018-02-06T10:48:27.338Z,24.77
2018-02-06T10:50:54.898Z,23.20
2018-02-06T10:53:22.854Z,23.80
2018-02-06T10:56:06.519Z,24.77
2018-02-06T10:58:39.526Z,24.90
2018-02-06T11:01:07.275Z,23.63
2018-02-06T11:03:45.073Z,22.50
2018-02-06T11:06:16.613Z,22.80
2018-02-06T11:08:46.567Z,23.90
2018-02-06T11:11:15.263Z,22.67
2018-02-06T11:13:42.856Z,24.77
2018-02-06T11:16:11.171Z,22.23
2018-02-06T11:21:48.986Z,25.00
2018-02-06T11:27:20.807Z,22.63
2018-02-06T11:29:59.105Z,24.53
2018-02-06T11:32:26.837Z,24.70
2018-02-06T11:35:12.911Z,23.60
2018-02-06T11:38:04.622Z,22.17
2018-02-06T11:40:37.141Z,24.70
2018-02-06T11:43:04.699Z,21.67
2018-02-06T11:45:33.166Z,23.10
2018-02-06T11:48:01.263Z,23.80
2018-02-06T11:50:44.880Z,23.63
2018-02-06T11:53:31.215Z,24.30
2018-02-06T11:55:59.286Z,22.77
2018-02-06T11:58:52.447Z,21.90
2018-02-06T12:01:31.368Z,21.90
2018-02-06T12:06:41.335Z,21.80
2018-02-06T12:09:09.288Z,23.10
2018-02-06T12:11:43.416Z,23.50
2018-02-06T12:14:25.105Z,22.50
2018-02-06T12:16:53.156Z,21.90
2018-02-06T12:19:27.147Z,22.10
2018-02-06T12:22:07.458Z,24.30
2018-02-06T12:24:36.028Z,23.73
2018-02-06T12:27:04.378Z,22.30
2018-02-06T12:29:31.970Z,20.83
2018-02-06T12:32:10.145Z,21.40
2018-02-06T12:34:38.078Z,21.93
2018-02-06T12:37:09.031Z,19.50
2018-02-06T12:39:36.782Z,19.57
2018-02-06T12:42:07.050Z,23.40
2018-02-06T12:44:35.394Z,22.43
2018-02-06T12:47:02.946Z,22.13
2018-02-06T12:49:30.582Z,23.03
2018-02-06T12:54:36.471Z,23.33
2018-02-06T12:57:04.807Z,22.80
2018-02-06T12:59:40.531Z,22.80
2018-02-06T13:02:08.858Z,23.87
2018-02-06T13:04:37.379Z,22.73
2018-02-06T13:07:13.242Z,21.63
2018-02-06T13:09:49.991Z,21.47
2018-02-06T13:12:22.751Z,23.03
2018-02-06T13:15:10.716Z,23.27
2018-02-06T13:17:49.186Z,21.80
2018-02-06T13:20:28.654Z,23.80
2018-02-06T13:22:57.218Z,22.80
2018-02-06T13:25:25.162Z,23.83
2018-02-06T13:27:58.333Z,22.43
2018-02-06T13:30:26.733Z,22.90
2018-02-06T13:32:55.054Z,22.67
2018-02-06T13:35:23.818Z,22.93
2018-02-06T13:37:51.362Z,22.20
2018-02-06T13:40:29.693Z,24.10
2018-02-06T13:43:13.273Z,20.20
2018-02-06T13:45:42.363Z,21.70
2018-02-06T13:48:18.056Z,22.77
2018-02-06T13:51:01.241Z,24.50
2018-02-06T13:53:35.014Z,22.10
2018-02-06T13:56:14.267Z,22.13
2018-02-06T13:58:43.143Z,22.70
2018-02-06T14:01:13.750Z,22.53
2018-02-06T14:03:46.487Z,21.60
2018-02-06T14:06:14.047Z,22.70
2018-02-06T14:08:44.930Z,22.83
2018-02-06T14:11:13.022Z,24.17
2018-02-06T14:13:42.019Z,22.67
2018-02-06T14:16:09.595Z,22.93
2018-02-06T14:18:37.151Z,23.60
2018-02-06T14:21:10.218Z,21.47
2018-02-06T14:24:04.242Z,23.10
2018-02-06T14:26:48.081Z,21.83
2018-02-06T14:29:18.661Z,23.60
2018-02-06T14:31:46.510Z,22.70
2018-02-06T14:34:19.799Z,22.80
2018-02-06T14:36:52.779Z,23.70
2018-02-06T14:39:20.883Z,22.03
2018-02-06T14:41:50.294Z,20.17
2018-02-06T14:44:24.114Z,21.23
2018-02-06T14:46:52.070Z,22.03
2018-02-06T14:49:32.556Z,19.87
2018-02-06T14:52:00.255Z,20.13
2018-02-06T14:54:27.817Z,22.13
2018-02-06T14:57:08.664Z,20.40
2018-02-06T14:59:40.822Z,20.87
2018-02-06T15:02:08.555Z,21.90
2018-02-06T15:04:36.592Z,21.23
2018-02-06T15:07:08.827Z,21.17
2018-02-06T15:09:46.184Z,20.97
2018-02-06T15:12:13.748Z,20.73
2018-02-06T15:14:42.390Z,21.83
2018-02-06T15:17:12.172Z,22.50
2018-02-06T15:19:41.552Z,19.77
2018-02-06T15:22:09.119Z,21.50
2018-02-06T15:24:37.082Z,52.33
2018-02-06T15:27:04.643Z,28.17
2018-02-06T15:29:38.323Z,22.63
2018-02-06T15:32:22.751Z,20.67
2018-02-06T15:34:50.458Z,21.30
2018-02-06T15:37:23.324Z,21.00
2018-02-06T15:39:50.903Z,21.53
2018-02-06T15:42:19.247Z,21.67
2018-02-06T15:44:46.806Z,23.00
2018-02-06T15:47:14.772Z,23.27
2018-02-06T15:49:42.725Z,21.70
2018-02-06T15:52:17.366Z,21.07
2018-02-06T15:57:38.108Z,23.03
2018-02-06T16:00:05.695Z,22.03
2018-02-06T16:02:34.037Z,21.33
2018-02-06T16:05:02.359Z,21.77
2018-02-06T16:07:30.695Z,23.13
2018-02-06T16:09:59.041Z,21.63
2018-02-06T16:15:26.644Z,19.20
2018-02-06T16:17:55.568Z,18.67
2018-02-06T16:20:23.115Z,20.07
2018-02-06T16:22:51.080Z,21.17
2018-02-06T16:25:18.647Z,20.40
2018-02-06T16:27:46.623Z,18.90
2018-02-06T16:30:14.958Z,18.87
2018-02-06T16:32:43.298Z,19.80
2018-02-06T16:35:11.606Z,18.00
2018-02-06T16:37:39.934Z,19.33
2018-02-06T16:40:08.304Z,20.67
2018-02-06T16:42:36.727Z,20.27
2018-02-06T16:45:05.052Z,19.13
2018-02-06T16:47:33.402Z,21.10
2018-02-06T16:50:01.728Z,20.73
2018-02-06T16:52:30.131Z,19.00
2018-02-06T16:54:58.511Z,21.07
2018-02-06T16:57:27.589Z,20.93
2018-02-06T16:59:55.126Z,21.43
2018-02-06T17:02:35.710Z,21.00
2018-02-06T17:05:03.263Z,22.53
2018-02-06T17:07:32.928Z,21.70
2018-02-06T17:10:01.482Z,20.93
2018-02-06T17:12:29.536Z,20.47
2018-02-06T17:14:57.990Z,22.50
2018-02-06T17:17:26.307Z,20.77
2018-02-06T17:19:55.378Z,25.00
2018-02-06T17:22:22.923Z,23.10
2018-02-06T17:24:51.259Z,27.43
2018-02-06T17:27:19.707Z,23.20
2018-02-06T17:29:48.043Z,24.73
2018-02-06T17:32:16.351Z,21.50
2018-02-06T17:34:44.712Z,22.80
2018-02-06T17:37:12.254Z,22.70
2018-02-06T17:39:40.224Z,19.83
2018-02-06T17:42:08.577Z,22.13
2018-02-06T17:44:36.905Z,21.43
2018-02-06T17:47:05.587Z,22.87
2018-02-06T17:49:33.550Z,21.67
2018-02-06T17:52:01.855Z,21.40
2018-02-06T17:54:30.186Z,21.90
2018-02-06T17:56:58.495Z,21.87
2018-02-06T17:59:26.941Z,23.70
2018-02-06T18:01:54.886Z,22.17
2018-02-06T18:04:22.464Z,22.40
2018-02-06T18:06:50.877Z,23.90
2018-02-06T18:09:19.214Z,22.67
2018-02-06T18:11:47.154Z,22.73
2018-02-06T18:14:14.716Z,22.10
2018-02-06T18:16:43.044Z,23.47
2018-02-06T18:19:11.044Z,22.83
2018-02-06T18:21:39.356Z,25.93
2018-02-06T18:24:07.672Z,24.93
2018-02-06T18:26:36.003Z,22.93
2018-02-06T18:29:04.323Z,23.43
2018-02-06T18:31:31.911Z,22.90
2018-02-06T18:33:59.866Z,24.00
2018-02-06T18:36:28.198Z,28.03
2018-02-06T18:38:56.547Z,25.77
2018-02-06T18:41:24.875Z,24.57
2018-02-06T18:43:53.275Z,25.93
2018-02-06T18:46:21.615Z,24.67
2018-02-06T18:48:49.918Z,24.13
2018-02-06T18:51:18.336Z,25.30
2018-02-06T18:53:46.787Z,25.67
2018-02-06T18:56:15.118Z,22.70
2018-02-06T18:58:43.426Z,24.70
2018-02-06T19:01:11.493Z,25.73
2018-02-06T19:03:39.055Z,23.67
2018-02-06T19:06:07.067Z,23.30
2018-02-06T19:08:35.042Z,25.63
2018-02-06T19:11:03.049Z,24.63
2018-02-06T19:13:30.616Z,24.70
2018-02-06T19:15:58.275Z,23.10
2018-02-06T19:18:26.543Z,23.80
2018-02-06T19:20:54.556Z,26.07
2018-02-06T19:23:22.872Z,23.47
2018-02-06T19:25:51.283Z,22.60
2018-02-06T19:28:19.622Z,23.97
2018-02-06T19:30:47.943Z,22.10
2018-02-06T19:33:15.490Z,24.80
2018-02-06T19:35:43.472Z,21.80
2018-02-06T19:38:11.410Z,22.70
2018-02-06T19:40:38.984Z,22.80
2018-02-06T19:43:07.034Z,20.73
2018-02-06T19:45:35.433Z,30.67
2018-02-06T19:48:03.931Z,27.13
2018-02-06T19:50:31.992Z,22.83
2018-02-06T19:53:00.334Z,22.70
2018-02-06T19:55:28.279Z,20.20
2018-02-06T19:57:56.602Z,20.07
2018-02-06T20:00:24.238Z,20.53
2018-02-06T20:02:52.258Z,20.30
2018-02-06T20:05:20.405Z,19.70
2018-02-06T20:07:48.030Z,20.33
2018-02-06T20:10:15.974Z,22.83
2018-02-06T20:12:44.416Z,21.20
2018-02-06T20:15:12.669Z,21.33
2018-02-06T20:17:41.011Z,21.87
2018-02-06T20:20:09.398Z,21.53
2018-02-06T20:22:37.778Z,21.00
2018-02-06T20:25:06.175Z,23.20
2018-02-06T20:27:34.186Z,23.03
2018-02-06T20:30:01.882Z,23.83
2018-02-06T20:32:30.007Z,23.33
2018-02-06T20:34:58.815Z,23.40
2018-02-06T20:37:27.172Z,25.30
2018-02-06T20:39:54.721Z,23.93
2018-02-06T20:42:23.458Z,25.10
2018-02-06T20:44:52.676Z,21.23
2018-02-06T20:47:20.291Z,22.60
2018-02-06T20:49:48.317Z,26.00
2018-02-06T20:52:16.797Z,23.87
2018-02-06T20:54:48.619Z,23.17
2018-02-06T20:57:17.788Z,22.70
2018-02-06T20:59:46.215Z,25.47
2018-02-06T21:02:16.613Z,24.17
2018-02-06T21:04:45.375Z,21.77
2018-02-06T21:07:13.720Z,24.77
2018-02-06T21:09:42.090Z,22.70
2018-02-06T21:12:10.091Z,23.10
2018-02-06T21:14:38.036Z,24.67
2018-02-06T21:17:07.157Z,22.57
2018-02-06T21:19:35.546Z,24.47
2018-02-06T21:22:03.560Z,25.63
2018-02-06T21:24:31.142Z,23.17
2018-02-06T21:26:59.089Z,25.40
2018-02-06T21:29:28.165Z,23.10
2018-02-06T21:31:55.810Z,21.90
2018-02-06T21:34:23.816Z,24.43
2018-02-06T21:36:51.762Z,24.90
2018-02-06T21:39:20.092Z,21.47
2018-02-06T21:41:48.086Z,24.40
2018-02-06T21:44:15.675Z,25.03
2018-02-06T21:46:44.084Z,25.30
2018-02-06T21:49:12.504Z,27.60
2018-02-06T21:51:40.633Z,23.30
2018-02-06T21:54:08.657Z,23.17
2018-02-06T21:56:36.644Z,22.07
2018-02-06T21:59:04.842Z,22.40
2018-02-06T22:01:32.454Z,21.90
2018-02-06T22:04:01.573Z,23.97
2018-02-06T22:06:29.530Z,25.87
2018-02-06T22:08:57.518Z,22.57
2018-02-06T22:11:25.836Z,21.47
2018-02-06T22:13:54.198Z,20.70
2018-02-06T22:16:35.124Z,20.80
2018-02-06T22:19:05.126Z,21.23
2018-02-06T22:21:33.689Z,23.77
2018-02-06T22:24:02.057Z,23.13
2018-02-06T22:26:30.589Z,22.57
2018-02-06T22:28:58.964Z,21.97
2018-02-06T22:31:27.290Z,21.70
2018-02-06T22:33:55.272Z,22.60
2018-02-06T22:36:23.236Z,23.53
2018-02-06T22:38:51.880Z,22.30
2018-02-06T22:41:19.500Z,22.13
2018-02-06T22:43:47.618Z,21.57
2018-02-06T22:46:15.576Z,20.07
2018-02-06T22:48:43.132Z,19.73
2018-02-06T22:51:11.470Z,23.23
2018-02-06T22:53:40.523Z,24.00
2018-02-06T22:56:08.526Z,22.70
2018-02-06T22:58:36.559Z,22.13
2018-02-06T23:01:04.937Z,23.90
2018-02-06T23:03:33.287Z,22.77
2018-02-06T23:06:01.653Z,21.80
2018-02-06T23:08:30.111Z,22.33
2018-02-06T23:10:59.198Z,22.67
2018-02-06T23:13:26.770Z,21.30
2018-02-06T23:15:55.850Z,20.47
2018-02-06T23:18:23.403Z,20.53
2018-02-06T23:20:51.761Z,20.40
2018-02-06T23:23:20.116Z,21.97
2018-02-06T23:25:48.442Z,20.87
2018-02-06T23:28:16.927Z,20.17
2018-02-06T23:30:44.890Z,20.17
2018-02-06T23:33:12.432Z,19.00
2018-02-06T23:35:40.766Z,19.70
2018-02-06T23:38:08.710Z,20.17
2018-02-06T23:40:36.996Z,20.60
2018-02-06T23:43:05.338Z,20.10
2018-02-06T23:45:33.739Z,20.90
2018-02-06T23:48:02.059Z,20.63
2018-02-06T23:50:30.396Z,21.20
2018-02-06T23:52:57.968Z,19.20
2018-02-06T23:55:25.963Z,21.20
2018-02-06T23:57:54.275Z,19.77
